Time;durP1;ratioP1;P1;durP2;ratioP2;P2;SDS_P1;SDS_P2;PMS_P1;PMS_P2;Temp;Humidity;BMP_temperature;BMP_pressure;BME280_temperature;BME280_humidity;BME280_pressure;Samples;Min_cycle;Max_cycle;Signal;HPM_P1;HPM_P2
2023/09/19 00:01:08;;;;;;;16.88;3.72;;;;;;;14.29;100.00;100612.66;5039007;28;20473;-66
2023/09/19 00:03:37;;;;;;;9.30;2.42;;;;;;;14.29;100.00;100610.06;5027178;28;20029;-66
2023/09/19 00:06:02;;;;;;;13.43;2.67;;;;;;;14.24;100.00;100615.22;5027798;28;20759;-65
2023/09/19 00:08:28;;;;;;;12.05;2.92;;;;;;;14.24;100.00;100609.13;5027245;28;20112;-66
2023/09/19 00:10:54;;;;;;;12.02;3.00;;;;;;;14.20;100.00;100620.34;5026373;28;20311;-65
2023/09/19 00:13:20;;;;;;;10.32;2.70;;;;;;;14.17;100.00;100619.44;5026939;28;20036;-66
2023/09/19 00:15:50;;;;;;;9.52;2.25;;;;;;;14.14;100.00;100619.41;5026860;28;20021;-66
2023/09/19 00:18:24;;;;;;;11.68;2.42;;;;;;;14.18;100.00;100625.53;5028758;28;20021;-66
2023/09/19 00:20:51;;;;;;;12.30;2.78;;;;;;;14.11;100.00;100627.19;5030561;28;20029;-66
2023/09/19 00:23:16;;;;;;;13.10;3.15;;;;;;;14.09;100.00;100626.28;5030567;28;20111;-66
2023/09/19 00:25:42;;;;;;;11.02;2.97;;;;;;;14.08;100.00;100634.97;5030754;28;20084;-67
2023/09/19 00:28:07;;;;;;;8.65;2.00;;;;;;;14.05;100.00;100634.91;5030839;28;20013;-66
2023/09/19 00:30:38;;;;;;;11.38;3.00;;;;;;;14.07;100.00;100642.78;5043866;28;20033;-66
2023/09/19 00:33:06;;;;;;;8.07;3.10;;;;;;;14.08;100.00;100639.31;5049157;28;20080;-64
2023/09/19 00:35:31;;;;;;;9.85;2.67;;;;;;;14.04;100.00;100644.47;5047522;28;20116;-66
2023/09/19 00:37:56;;;;;;;8.73;2.25;;;;;;;13.99;100.00;100647.84;5048928;28;20100;-66
2023/09/19 00:40:21;;;;;;;9.75;2.78;;;;;;;13.98;100.00;100652.19;5046842;28;20061;-66
2023/09/19 00:42:49;;;;;;;8.10;2.38;;;;;;;13.95;100.00;100654.75;5037067;28;20025;-65
2023/09/19 00:45:17;;;;;;;7.93;2.15;;;;;;;13.91;100.00;100653.81;5046616;28;20029;-66
2023/09/19 00:47:48;;;;;;;12.60;3.00;;;;;;;13.86;100.00;100655.50;5048967;28;20558;-66
2023/09/19 00:50:17;;;;;;;8.27;2.50;;;;;;;13.88;100.00;100661.59;5046783;28;20049;-65
2023/09/19 00:52:43;;;;;;;11.57;2.88;;;;;;;13.85;100.00;100661.53;5048971;28;20381;-66
2023/09/19 00:55:10;;;;;;;6.88;3.00;;;;;;;13.85;100.00;100669.34;5044916;28;20481;-66
2023/09/19 00:57:38;;;;;;;8.85;2.67;;;;;;;13.83;100.00;100675.41;5039236;28;20049;-66
2023/09/19 01:00:08;;;;;;;9.15;2.83;;;;;;;13.83;100.00;100681.50;5042035;28;20462;-65
2023/09/19 01:02:34;;;;;;;7.90;2.53;;;;;;;13.85;100.00;100684.97;5031657;28;20533;-65
2023/09/19 01:05:00;;;;;;;13.88;2.58;;;;;;;13.80;100.00;100686.63;5046926;28;20516;-65
2023/09/19 01:07:26;;;;;;;10.32;2.50;;;;;;;13.81;100.00;100683.19;5047754;28;20069;-66
2023/09/19 01:09:53;;;;;;;12.40;2.75;;;;;;;13.76;100.00;100692.66;5030400;28;20052;-66
2023/09/19 01:12:31;;;;;;;9.93;2.40;;;;;;;13.76;100.00;100695.25;5029742;28;20033;-66
2023/09/19 01:15:06;;;;;;;12.75;2.63;;;;;;;13.73;100.00;100687.38;5029743;28;20060;-66
2023/09/19 01:17:46;;;;;;;11.38;2.13;;;;;;;13.67;100.00;100691.63;5030015;28;20025;-66
2023/09/19 01:20:19;;;;;;;6.43;2.47;;;;;;;13.62;100.00;100672.47;5029760;28;20021;-66
2023/09/19 01:23:04;;;;;;;12.80;2.97;;;;;;;13.58;100.00;100686.28;5032155;28;20421;-66
2023/09/19 01:26:10;;;;;;;11.50;2.80;;;;;;;13.61;100.00;100694.16;5036636;28;20041;-67
2023/09/19 01:28:55;;;;;;;10.13;2.60;;;;;;;13.63;100.00;100687.25;5020554;28;20029;-66
2023/09/19 01:31:23;;;;;;;10.23;2.17;;;;;;;13.59;100.00;100689.75;5029595;28;20536;-66
2023/09/19 01:34:04;;;;;;;12.00;2.58;;;;;;;13.58;100.00;100694.09;5029574;28;20033;-66
2023/09/19 01:36:36;;;;;;;7.63;2.70;;;;;;;13.54;100.00;100698.38;5049525;28;20520;-66
2023/09/19 01:39:10;;;;;;;12.90;3.50;;;;;;;13.52;100.00;100713.09;5045427;28;20021;-66
2023/09/19 01:41:44;;;;;;;10.65;2.85;;;;;;;13.51;100.00;100711.28;5040791;28;20021;-66
2023/09/19 01:44:17;;;;;;;10.38;2.45;;;;;;;13.49;100.00;100702.56;5048878;28;20032;-65
2023/09/19 01:46:47;;;;;;;10.30;2.38;;;;;;;13.50;100.00;100706.06;5047689;28;20032;-64
2023/09/19 01:49:22;;;;;;;10.57;2.50;;;;;;;13.49;100.00;100717.34;5024316;28;20055;-66
2023/09/19 01:52:20;;;;;;;9.43;2.25;;;;;;;13.49;100.00;100718.19;5047807;28;20286;-66
2023/09/19 01:54:50;;;;;;;8.55;2.63;;;;;;;13.50;100.00;100716.47;5043371;28;20044;-65
2023/09/19 01:57:24;;;;;;;10.43;2.60;;;;;;;13.46;100.00;100712.94;5023378;28;20078;-66
2023/09/19 01:59:54;;;;;;;6.63;2.38;;;;;;;13.50;100.00;100706.06;5047657;28;20086;-65
2023/09/19 02:02:22;;;;;;;7.10;1.95;;;;;;;13.47;100.00;100711.22;5047950;28;20113;-66
2023/09/19 02:04:48;;;;;;;9.35;2.13;;;;;;;13.44;100.00;100710.31;5048026;28;20359;-66
2023/09/19 02:07:16;;;;;;;7.60;2.50;;;;;;;13.37;100.00;100707.56;5048010;28;20400;-63
2023/09/19 02:09:42;;;;;;;12.20;2.17;;;;;;;13.40;100.00;100718.91;5034533;28;20116;-66
2023/09/19 02:12:09;;;;;;;7.35;1.95;;;;;;;13.34;100.00;100711.00;5039339;28;20108;-66
2023/09/19 02:14:36;;;;;;;12.73;2.60;;;;;;;13.37;100.00;100708.44;5044267;28;20422;-65
2023/09/19 02:17:03;;;;;;;9.82;2.78;;;;;;;13.36;100.00;100709.31;5047770;28;20060;-66
2023/09/19 02:19:29;;;;;;;10.10;2.28;;;;;;;13.31;100.00;100711.81;5047703;28;20196;-66
2023/09/19 02:21:55;;;;;;;12.05;2.72;;;;;;;13.28;100.00;100708.25;5047929;28;20029;-66
2023/09/19 02:24:20;;;;;;;7.50;2.22;;;;;;;13.26;100.00;100716.03;5047784;28;20507;-65
2023/09/19 02:26:45;;;;;;;6.90;2.40;;;;;;;13.26;100.00;100710.00;5048192;28;20065;-66
2023/09/19 02:29:12;;;;;;;8.57;2.33;;;;;;;13.28;100.00;100713.47;5047655;28;20024;-66
2023/09/19 02:31:38;;;;;;;11.00;2.30;;;;;;;13.24;100.00;100716.88;5047238;28;20366;-67
2023/09/19 02:34:06;;;;;;;9.07;2.05;;;;;;;13.21;100.00;100718.56;5047548;28;20017;-66
2023/09/19 02:36:31;;;;;;;9.35;2.47;;;;;;;13.20;100.00;100716.81;5047665;28;20037;-66
2023/09/19 02:38:57;;;;;;;6.97;2.67;;;;;;;13.21;100.00;100722.88;5047092;28;20493;-66
2023/09/19 02:41:22;;;;;;;9.73;2.53;;;;;;;13.23;100.00;100720.31;5046564;28;20091;-66
2023/09/19 02:43:47;;;;;;;9.23;2.28;;;;;;;13.21;100.00;100721.19;5045510;28;20384;-65
2023/09/19 02:46:13;;;;;;;8.20;1.90;;;;;;;13.19;100.00;100719.38;5047759;28;20029;-66
2023/09/19 02:48:38;;;;;;;10.15;2.35;;;;;;;13.19;100.00;100725.47;5046019;28;20017;-66
2023/09/19 02:51:03;;;;;;;12.20;2.75;;;;;;;13.12;100.00;100726.19;5047471;28;20043;-66
2023/09/19 02:53:30;;;;;;;6.68;2.00;;;;;;;13.09;100.00;100728.75;5045815;28;20063;-66
2023/09/19 02:55:56;;;;;;;9.13;2.05;;;;;;;13.07;100.00;100728.72;5046840;28;20037;-64
2023/09/19 02:58:22;;;;;;;7.97;2.20;;;;;;;13.03;100.00;100728.59;5045759;28;20025;-66
2023/09/19 03:00:49;;;;;;;10.80;2.95;;;;;;;13.00;100.00;100733.75;5046945;28;20423;-66
2023/09/19 03:03:16;;;;;;;10.07;2.35;;;;;;;12.93;100.00;100738.81;5045984;28;20017;-66
2023/09/19 03:05:46;;;;;;;7.70;2.20;;;;;;;12.87;100.00;100736.09;5046853;28;20059;-66
2023/09/19 03:08:14;;;;;;;14.02;2.35;;;;;;;12.86;100.00;100731.75;5041649;28;20049;-66
2023/09/19 03:10:40;;;;;;;11.00;2.13;;;;;;;12.84;100.00;100743.84;5026880;28;20117;-66
2023/09/19 03:13:05;;;;;;;7.15;2.10;;;;;;;12.84;100.00;100736.03;5031326;28;20140;-66
2023/09/19 03:15:31;;;;;;;7.63;2.00;;;;;;;12.81;100.00;100735.97;5047604;28;20679;-66
2023/09/19 03:17:57;;;;;;;7.13;2.25;;;;;;;12.76;100.00;100733.28;5029488;28;20025;-65
2023/09/19 03:20:23;;;;;;;7.03;1.73;;;;;;;12.72;100.00;100734.03;5027551;28;20551;-66
2023/09/19 03:22:48;;;;;;;6.18;2.03;;;;;;;12.71;100.00;100733.19;5030648;28;20056;-66
2023/09/19 03:25:14;;;;;;;9.23;2.78;;;;;;;12.70;100.00;100728.81;5046603;28;20021;-66
2023/09/19 03:27:40;;;;;;;6.68;2.08;;;;;;;12.68;100.00;100729.66;5046117;28;20060;-66
2023/09/19 03:30:08;;;;;;;7.00;2.00;;;;;;;12.70;100.00;100736.63;5047087;28;20052;-66
2023/09/19 03:32:37;;;;;;;7.70;2.30;;;;;;;12.68;100.00;100727.03;5046723;28;20140;-66
2023/09/19 03:35:05;;;;;;;8.07;1.83;;;;;;;12.66;100.00;100724.41;5046577;28;20390;-64
2023/09/19 03:37:30;;;;;;;9.38;2.15;;;;;;;12.69;100.00;100719.28;5043843;28;20033;-65
2023/09/19 03:39:56;;;;;;;7.35;1.95;;;;;;;12.70;100.00;100728.81;5046344;28;20405;-65
2023/09/19 03:42:25;;;;;;;8.95;1.90;;;;;;;12.67;100.00;100727.88;5046200;28;20100;-66
2023/09/19 03:44:51;;;;;;;9.52;1.80;;;;;;;12.69;100.00;100729.66;5046772;28;20020;-66
2023/09/19 03:47:17;;;;;;;8.13;2.15;;;;;;;12.66;100.00;100723.53;5045285;28;20024;-66
2023/09/19 03:49:43;;;;;;;10.40;3.35;;;;;;;12.68;100.00;100721.84;5046656;28;20033;-66
2023/09/19 03:52:08;;;;;;;6.97;1.73;;;;;;;12.68;100.00;100714.03;5047530;28;20499;-66
2023/09/19 03:54:33;;;;;;;7.22;2.10;;;;;;;12.69;100.00;100727.06;5050624;28;20033;-66
2023/09/19 03:56:58;;;;;;;8.07;2.13;;;;;;;12.69;100.00;100714.06;5049776;28;20031;-66
2023/09/19 03:59:24;;;;;;;7.60;2.00;;;;;;;12.70;100.00;100714.97;5050730;28;20048;-66
2023/09/19 04:01:50;;;;;;;10.55;2.20;;;;;;;12.70;100.00;100726.22;5050467;28;20048;-65
2023/09/19 04:04:15;;;;;;;10.00;2.65;;;;;;;12.69;100.00;100719.28;5050750;28;20600;-65
2023/09/19 04:06:40;;;;;;;7.68;2.53;;;;;;;12.68;100.00;100724.44;5049744;28;20045;-65
2023/09/19 04:09:07;;;;;;;7.85;2.00;;;;;;;12.69;100.00;100729.66;5038485;28;20033;-65
2023/09/19 04:11:33;;;;;;;9.02;2.28;;;;;;;12.70;100.00;100718.41;5031103;28;20045;-66
2023/09/19 04:13:58;;;;;;;10.80;2.55;;;;;;;12.72;100.00;100715.84;5030465;28;20033;-65
2023/09/19 04:16:24;;;;;;;7.97;2.03;;;;;;;12.73;100.00;100720.22;5031479;28;20390;-64
2023/09/19 04:18:49;;;;;;;5.22;1.77;;;;;;;12.75;100.00;100717.66;5030818;28;20025;-65
2023/09/19 04:21:16;;;;;;;8.82;2.20;;;;;;;12.77;100.00;100722.00;5031861;28;20439;-65
2023/09/19 04:23:42;;;;;;;8.07;2.30;;;;;;;12.77;100.00;100728.97;5030977;28;20436;-65
2023/09/19 04:26:08;;;;;;;10.77;2.10;;;;;;;12.79;100.00;100735.06;5031476;28;20108;-66
2023/09/19 04:28:34;;;;;;;11.63;2.28;;;;;;;12.80;100.00;100749.81;5030863;28;20027;-66
2023/09/19 04:31:00;;;;;;;9.75;2.20;;;;;;;12.82;100.00;100746.41;5030905;28;20060;-65
2023/09/19 04:33:27;;;;;;;10.63;2.22;;;;;;;12.84;100.00;100746.44;5030681;28;20044;-66
2023/09/19 04:35:52;;;;;;;14.18;2.38;;;;;;;12.83;100.00;100762.88;5030842;28;20116;-66
2023/09/19 04:38:19;;;;;;;9.55;2.30;;;;;;;12.78;100.00;100757.59;5038968;28;20036;-65
2023/09/19 04:40:45;;;;;;;8.25;2.15;;;;;;;12.80;100.00;100768.03;5037472;28;20059;-65
2023/09/19 04:43:10;;;;;;;8.70;2.67;;;;;;;12.80;100.00;100775.81;5046455;28;20012;-66
2023/09/19 04:45:38;;;;;;;6.63;2.00;;;;;;;12.81;100.00;100780.16;5041838;28;20444;-66
2023/09/19 04:48:03;;;;;;;7.40;2.00;;;;;;;12.83;100.00;100783.69;5046166;28;20033;-66
2023/09/19 04:50:29;;;;;;;9.95;2.25;;;;;;;12.81;100.00;100785.38;5040688;28;20029;-66
2023/09/19 04:52:55;;;;;;;9.77;2.55;;;;;;;12.85;100.00;100792.41;5045504;28;20435;-66
2023/09/19 04:55:20;;;;;;;8.90;2.80;;;;;;;12.88;100.00;100797.66;5047791;28;20027;-66
2023/09/19 04:57:55;;;;;;;9.85;1.98;;;;;;;12.92;100.00;100798.59;5049727;28;20029;-65
2023/09/19 05:00:24;;;;;;;7.80;2.17;;;;;;;12.94;100.00;100803.00;5047541;28;20106;-66
2023/09/19 05:02:51;;;;;;;8.10;1.90;;;;;;;12.96;100.00;100796.13;5045563;28;20476;-66
2023/09/19 05:05:17;;;;;;;12.45;2.40;;;;;;;12.96;100.00;100801.31;5047850;28;20419;-64
2023/09/19 05:07:42;;;;;;;9.73;2.33;;;;;;;12.97;100.00;100797.88;5048681;28;20087;-66
2023/09/19 05:10:09;;;;;;;8.88;2.45;;;;;;;12.94;100.00;100792.59;5035352;28;20074;-66
2023/09/19 05:12:35;;;;;;;8.07;1.98;;;;;;;12.96;100.00;100803.91;5048787;28;20021;-66
2023/09/19 05:15:10;;;;;;;6.97;2.10;;;;;;;12.94;100.00;100803.00;5047225;28;20367;-65
2023/09/19 05:17:36;;;;;;;6.43;2.35;;;;;;;12.97;100.00;100791.78;5046271;28;20540;-66
2023/09/19 05:20:14;;;;;;;9.90;2.60;;;;;;;12.94;100.00;100796.91;5035306;28;20089;-65
2023/09/19 05:22:40;;;;;;;9.30;2.53;;;;;;;12.92;100.00;100796.88;5045762;28;20482;-64
2023/09/19 05:25:06;;;;;;;10.60;1.90;;;;;;;12.93;100.00;100797.78;5046210;28;20021;-66
2023/09/19 05:27:33;;;;;;;13.02;2.22;;;;;;;12.94;100.00;100803.00;5044574;28;20079;-66
2023/09/19 05:29:58;;;;;;;10.75;3.30;;;;;;;12.94;100.00;100797.81;5025923;28;20120;-66
2023/09/19 05:32:24;;;;;;;14.07;2.50;;;;;;;12.97;100.00;100808.25;5016871;28;20044;-66
2023/09/19 05:34:52;;;;;;;11.52;2.38;;;;;;;12.96;100.00;100805.63;5011218;28;20065;-65
2023/09/19 05:37:18;;;;;;;9.98;2.00;;;;;;;12.96;100.00;100801.31;5023878;28;20029;-66
2023/09/19 05:39:43;;;;;;;9.05;2.20;;;;;;;12.99;100.00;100802.25;5012264;28;20052;-65
2023/09/19 05:42:09;;;;;;;10.27;2.30;;;;;;;12.97;100.00;100802.19;5022763;28;20050;-66
2023/09/19 05:44:35;;;;;;;10.60;2.50;;;;;;;13.01;100.00;100809.22;5016130;28;20022;-66
2023/09/19 05:47:02;;;;;;;10.75;2.50;;;;;;;13.04;100.00;100811.00;5017080;28;20033;-66
2023/09/19 05:49:28;;;;;;;8.98;2.53;;;;;;;13.05;100.00;100799.75;5031337;28;20420;-66
2023/09/19 05:51:55;;;;;;;6.75;2.10;;;;;;;13.07;100.00;100803.28;5038209;28;20509;-66
2023/09/19 05:54:20;;;;;;;9.35;2.60;;;;;;;13.10;100.00;100808.53;5034963;28;20025;-66
2023/09/19 05:56:47;;;;;;;8.20;2.40;;;;;;;13.07;100.00;100806.75;5030010;28;20524;-67
2023/09/19 05:59:14;;;;;;;7.20;2.03;;;;;;;13.08;100.00;100794.59;5033926;28;20031;-67
2023/09/19 06:01:39;;;;;;;10.48;2.90;;;;;;;13.08;100.00;100789.41;5032487;28;20048;-66
2023/09/19 06:04:04;;;;;;;11.55;2.33;;;;;;;13.11;100.00;100792.09;5034492;28;20481;-66
2023/09/19 06:06:30;;;;;;;8.32;2.03;;;;;;;13.11;100.00;100805.09;5031875;28;20053;-66
2023/09/19 06:08:55;;;;;;;11.70;2.72;;;;;;;13.12;100.00;100806.84;5030588;28;20025;-65
2023/09/19 06:11:21;;;;;;;14.98;2.45;;;;;;;13.13;100.00;100807.72;5042120;28;20029;-66
2023/09/19 06:13:51;;;;;;;10.07;2.45;;;;;;;13.14;100.00;100805.16;5047265;28;20029;-66
2023/09/19 06:16:19;;;;;;;11.00;2.25;;;;;;;13.16;100.00;100807.78;5045876;28;20164;-66
2023/09/19 06:18:45;;;;;;;11.85;3.17;;;;;;;13.15;100.00;100812.09;5045853;28;20083;-67
2023/09/19 06:21:11;;;;;;;10.65;2.70;;;;;;;13.14;100.00;100812.97;5047060;28;20017;-66
2023/09/19 06:23:36;;;;;;;9.85;2.72;;;;;;;13.15;100.00;100809.50;5047095;28;20496;-66
2023/09/19 06:26:01;;;;;;;9.45;2.88;;;;;;;13.17;100.00;100820.81;5047961;28;20017;-67
2023/09/19 06:28:28;;;;;;;9.02;2.70;;;;;;;13.19;100.00;100821.72;5048180;28;20029;-67
2023/09/19 06:30:54;;;;;;;12.05;2.70;;;;;;;13.21;100.00;100825.25;5027565;28;20024;-66
2023/09/19 06:33:21;;;;;;;9.02;2.47;;;;;;;13.20;100.00;100826.06;5043450;28;20112;-66
2023/09/19 06:35:47;;;;;;;8.23;2.10;;;;;;;13.20;100.00;100826.06;5027292;28;20017;-66
2023/09/19 06:38:13;;;;;;;8.65;2.60;;;;;;;13.21;100.00;100837.38;5026350;28;20049;-66
2023/09/19 06:40:38;;;;;;;9.52;2.88;;;;;;;13.19;100.00;100839.94;5030891;28;20098;-66
2023/09/19 06:43:05;;;;;;;11.10;2.95;;;;;;;13.20;100.00;100836.50;5039058;28;20064;-66
2023/09/19 06:45:31;;;;;;;7.68;2.40;;;;;;;13.26;100.00;100834.88;5044140;28;20071;-66
2023/09/19 06:47:57;;;;;;;8.90;2.55;;;;;;;13.30;100.00;100840.19;5042641;28;20039;-65
2023/09/19 06:50:23;;;;;;;13.93;2.88;;;;;;;13.32;100.00;100842.81;5043717;28;20021;-66
2023/09/19 06:52:51;;;;;;;9.43;3.25;;;;;;;13.35;100.00;100844.59;5040722;28;20021;-67
2023/09/19 06:55:19;;;;;;;13.45;3.03;;;;;;;13.37;100.00;100846.38;5029852;28;20105;-67
2023/09/19 06:57:45;;;;;;;9.35;2.85;;;;;;;13.43;100.00;100841.31;5028196;28;20530;-66
2023/09/19 07:00:18;;;;;;;13.00;2.65;;;;;;;13.40;100.00;100836.03;5026373;28;20017;-66
2023/09/19 07:02:44;;;;;;;11.60;3.88;;;;;;;13.41;100.00;100836.91;5031230;28;20037;-66
2023/09/19 07:05:10;;;;;;;11.57;2.95;;;;;;;13.44;100.00;100830.03;5023460;28;20029;-66
2023/09/19 07:07:35;;;;;;;11.15;2.60;;;;;;;13.47;100.00;100846.56;5025827;28;20556;-67
2023/09/19 07:10:05;;;;;;;10.15;2.58;;;;;;;13.48;100.00;100824.88;5025771;28;20032;-66
2023/09/19 07:12:31;;;;;;;8.48;2.03;;;;;;;13.50;100.00;100844.03;5029213;28;20028;-65
2023/09/19 07:14:56;;;;;;;8.90;2.40;;;;;;;13.50;100.00;100839.69;5032342;28;20052;-66
2023/09/19 07:17:23;;;;;;;9.35;2.17;;;;;;;13.53;100.00;100844.09;5035449;28;20037;-67
2023/09/19 07:19:50;;;;;;;9.10;2.65;;;;;;;13.59;100.00;100854.66;5039137;28;20435;-66
2023/09/19 07:22:15;;;;;;;9.77;2.50;;;;;;;13.63;100.00;100842.56;5035739;28;20025;-65
2023/09/19 07:24:40;;;;;;;8.70;2.35;;;;;;;13.64;100.00;100853.00;5031650;28;20295;-67
2023/09/19 07:27:06;;;;;;;9.75;2.45;;;;;;;13.71;100.00;100850.56;5035390;28;20029;-67
2023/09/19 07:29:31;;;;;;;11.45;2.90;;;;;;;13.73;100.00;100849.72;5035914;28;20021;-66
2023/09/19 07:31:56;;;;;;;11.73;2.30;;;;;;;13.76;100.00;100843.69;5029199;28;20040;-65
2023/09/19 07:34:22;;;;;;;9.48;2.55;;;;;;;13.78;100.00;100844.59;5031937;28;20036;-67
2023/09/19 07:36:48;;;;;;;9.38;2.60;;;;;;;13.88;100.00;100835.22;5031126;28;20090;-66
2023/09/19 07:39:13;;;;;;;9.68;2.50;;;;;;;14.08;100.00;100838.19;5038029;28;20035;-67
2023/09/19 07:41:40;;;;;;;8.98;2.40;;;;;;;14.34;100.00;100842.97;5037439;28;20033;-67
2023/09/19 07:44:05;;;;;;;6.53;2.97;;;;;;;14.56;100.00;100853.72;5029828;28;20188;-67
2023/09/19 07:46:31;;;;;;;7.60;2.45;;;;;;;14.73;100.00;100851.38;5036362;28;20040;-67
2023/09/19 07:48:57;;;;;;;11.48;2.45;;;;;;;14.94;100.00;100854.31;5042242;28;20107;-67
2023/09/19 07:51:23;;;;;;;9.25;2.85;;;;;;;15.15;100.00;100855.47;5044328;28;20496;-67
2023/09/19 07:53:48;;;;;;;10.85;2.70;;;;;;;15.30;100.00;100860.88;5043027;28;20025;-66
2023/09/19 07:56:14;;;;;;;7.88;2.28;;;;;;;15.45;100.00;100859.34;5045109;28;20477;-66
2023/09/19 07:58:43;;;;;;;8.65;2.75;;;;;;;15.47;100.00;100853.25;5031774;28;20456;-67
2023/09/19 08:01:10;;;;;;;9.70;2.97;;;;;;;15.45;100.00;100856.72;5045321;28;20029;-67
2023/09/19 08:03:40;;;;;;;11.60;2.38;;;;;;;15.53;100.00;100856.78;5042920;28;20123;-66
2023/09/19 08:06:06;;;;;;;9.93;2.20;;;;;;;15.52;100.00;100855.06;5043649;28;20029;-66
2023/09/19 08:08:32;;;;;;;10.63;2.63;;;;;;;15.67;100.00;100870.03;5038082;28;20108;-67
2023/09/19 08:10:58;;;;;;;7.78;2.35;;;;;;;15.75;100.00;100875.31;5030012;28;20024;-67
2023/09/19 08:13:24;;;;;;;9.52;2.88;;;;;;;15.73;100.00;100865.75;5031040;28;20033;-66
2023/09/19 08:15:50;;;;;;;8.07;1.92;;;;;;;15.83;100.00;100871.09;5034501;28;20481;-67
2023/09/19 08:18:16;;;;;;;8.98;2.67;;;;;;;15.90;100.00;100872.00;5030103;28;20109;-65
2023/09/19 08:20:42;;;;;;;11.43;2.35;;;;;;;15.94;100.00;100865.94;5025701;28;20124;-67
2023/09/19 08:23:08;;;;;;;9.48;2.28;;;;;;;15.93;100.00;100865.09;5029553;28;20619;-65
2023/09/19 08:25:34;;;;;;;12.60;2.72;;;;;;;16.01;100.00;100862.56;5028131;28;20078;-66
2023/09/19 08:28:02;;;;;;;6.22;2.22;;;;;;;16.04;100.00;100865.22;5017334;28;20458;-66
2023/09/19 08:30:30;;;;;;;9.10;1.80;;;;;;;16.22;100.00;100858.41;5030979;28;20060;-66
2023/09/19 08:32:59;;;;;;;14.48;2.25;;;;;;;16.44;100.00;100864.69;5028548;28;20435;-67
2023/09/19 08:35:24;;;;;;;9.60;2.65;;;;;;;16.52;100.00;100867.38;5030062;28;20028;-67
2023/09/19 08:37:50;;;;;;;8.23;2.50;;;;;;;16.53;100.00;100863.88;5028443;28;20029;-67
2023/09/19 08:40:16;;;;;;;16.40;3.28;;;;;;;16.56;100.00;100869.16;5034128;28;20025;-67
2023/09/19 08:42:55;;;;;;;9.07;2.08;;;;;;;16.77;100.00;100857.06;5032639;28;20029;-67
2023/09/19 08:45:23;;;;;;;7.40;1.80;;;;;;;16.99;100.00;100867.69;5035068;28;20025;-67
2023/09/19 08:48:17;;;;;;;8.23;2.00;;;;;;;17.08;100.00;100859.00;5031889;28;20104;-67
2023/09/19 08:50:57;;;;;;;9.05;2.75;;;;;;;17.07;100.00;100877.31;5021742;28;20055;-67
2023/09/19 08:53:31;;;;;;;8.88;2.38;;;;;;;16.98;100.00;100871.13;5034413;28;20044;-66
2023/09/19 08:56:01;;;;;;;7.90;2.35;;;;;;;17.25;100.00;100864.34;5032092;28;20918;-66
2023/09/19 08:58:35;;;;;;;7.95;2.00;;;;;;;17.28;100.00;100874.84;5029904;28;20029;-67
2023/09/19 09:01:01;;;;;;;10.10;2.47;;;;;;;17.42;100.00;100868.78;5033327;28;20470;-67
2023/09/19 09:03:32;;;;;;;11.35;2.35;;;;;;;17.35;100.00;100874.84;5030757;28;20473;-67
2023/09/19 09:05:58;;;;;;;7.50;2.10;;;;;;;17.47;100.00;100868.78;5034585;28;20630;-66
2023/09/19 09:08:24;;;;;;;10.30;2.30;;;;;;;17.67;100.00;100863.63;5033446;28;20060;-68
2023/09/19 09:10:51;;;;;;;9.02;2.30;;;;;;;17.73;100.00;100858.41;5029591;28;20112;-66
2023/09/19 09:13:17;;;;;;;9.20;2.80;;;;;;;17.57;100.00;100867.09;5047631;28;20385;-66
2023/09/19 09:15:44;;;;;;;8.20;2.58;;;;;;;17.67;100.00;100861.00;5036938;28;20048;-67
2023/09/19 09:18:10;;;;;;;13.20;2.70;;;;;;;17.54;100.00;100859.22;5028272;28;20034;-67
2023/09/19 09:20:35;;;;;;;9.32;3.17;;;;;;;17.67;100.00;100873.22;5039013;28;20032;-67
2023/09/19 09:23:03;;;;;;;8.63;2.53;;;;;;;17.58;100.00;100879.31;5037233;28;20490;-67
2023/09/19 09:25:54;;;;;;;7.97;2.17;;;;;;;17.65;100.00;100867.97;5042292;28;20024;-66
2023/09/19 09:28:20;;;;;;;;;;;;;;;17.79;100.00;100873.25;5039846;28;20242;-66
2023/09/19 09:30:46;;;;;;;10.02;2.45;;;;;;;17.62;100.00;100873.22;5041841;28;20488;-67
2023/09/19 09:33:13;;;;;;;10.05;2.78;;;;;;;17.56;100.00;100863.59;5041226;28;20032;-67
2023/09/19 09:35:51;;;;;;;10.30;2.75;;;;;;;17.55;100.00;100867.09;5031101;28;20500;-66
2023/09/19 09:38:18;;;;;;;8.82;2.55;;;;;;;17.56;100.00;100849.63;5028437;28;20087;-67
2023/09/19 09:40:53;;;;;;;9.98;2.28;;;;;;;17.55;100.00;100855.72;5045548;28;20028;-66
2023/09/19 09:43:34;;;;;;;9.00;2.50;;;;;;;17.61;100.00;100850.53;5048568;28;20155;-66
2023/09/19 09:52:00;;;;;;;9.23;2.00;;;;;;;17.73;100.00;100834.81;5047742;28;20046;-65
2023/09/19 09:54:33;;;;;;;7.43;2.10;;;;;;;17.86;100.00;100850.56;5048614;28;20020;-67
2023/09/19 09:57:01;;;;;;;9.13;2.40;;;;;;;17.78;100.00;100847.94;5042390;28;20114;-67
2023/09/19 09:59:48;;;;;;;8.35;2.65;;;;;;;17.79;100.00;100849.66;5038435;28;20536;-67
2023/09/19 10:02:20;;;;;;;7.82;2.75;;;;;;;17.74;100.00;100840.91;5023193;28;20037;-67
2023/09/19 10:04:51;;;;;;;10.07;2.90;;;;;;;17.77;100.00;100852.28;5046210;28;20021;-68
2023/09/19 10:07:32;;;;;;;8.65;2.13;;;;;;;17.72;99.79;100848.78;5047839;28;20349;-67
2023/09/19 10:10:04;;;;;;;6.90;2.33;;;;;;;17.68;100.00;100851.41;5035234;28;20075;-66
2023/09/19 10:12:31;;;;;;;12.45;2.42;;;;;;;17.52;100.00;100849.59;5036607;28;20408;-67
2023/09/19 10:15:00;;;;;;;8.02;2.15;;;;;;;17.52;100.00;100854.84;5047222;28;20021;-66
2023/09/19 10:17:27;;;;;;;6.78;2.30;;;;;;;17.63;100.00;100843.50;5048086;28;20233;-67
2023/09/19 10:19:57;;;;;;;9.77;2.50;;;;;;;17.77;100.00;100851.44;5047485;28;20016;-67
2023/09/19 10:22:26;;;;;;;10.00;2.13;;;;;;;17.83;100.00;100842.69;5041214;28;20026;-67
2023/09/19 10:24:53;;;;;;;11.05;2.58;;;;;;;17.93;100.00;100847.09;5032847;28;20310;-67
2023/09/19 10:27:20;;;;;;;5.72;2.08;;;;;;;17.94;100.00;100834.84;5030823;28;20036;-67
2023/09/19 10:29:50;;;;;;;9.23;2.03;;;;;;;17.91;99.59;100838.34;5031158;28;20299;-67
2023/09/19 10:32:19;;;;;;;9.43;2.45;;;;;;;17.85;99.29;100847.06;5033100;28;20028;-66
2023/09/19 10:34:46;;;;;;;9.82;2.30;;;;;;;18.01;99.90;100836.59;5030130;28;20057;-66
2023/09/19 10:37:13;;;;;;;6.60;1.80;;;;;;;18.08;100.00;100834.88;5032642;28;20096;-67
2023/09/19 10:39:40;;;;;;;7.28;1.83;;;;;;;18.24;99.64;100841.88;5029726;28;20033;-67
2023/09/19 10:42:08;;;;;;;12.82;2.50;;;;;;;18.36;97.49;100845.41;5030684;28;20029;-67
2023/09/19 10:44:42;;;;;;;6.45;2.03;;;;;;;18.11;94.58;100845.34;5036008;28;20438;-67
2023/09/19 10:47:08;;;;;;;7.75;2.58;;;;;;;18.21;94.91;100847.13;5029385;28;20025;-68
2023/09/19 10:49:34;;;;;;;5.72;2.00;;;;;;;18.31;95.49;100844.53;5032161;28;20082;-67
2023/09/19 10:52:01;;;;;;;7.03;1.92;;;;;;;18.43;95.78;100847.13;5033609;28;20049;-67
2023/09/19 10:54:34;;;;;;;7.05;2.15;;;;;;;18.48;96.07;100839.25;5033422;28;20029;-67
2023/09/19 10:57:00;;;;;;;11.75;3.13;;;;;;;18.49;93.79;100841.03;5031386;28;20057;-67
2023/09/19 10:59:34;;;;;;;6.35;1.92;;;;;;;18.66;94.88;100840.97;5038435;28;20489;-67
2023/09/19 11:02:07;;;;;;;5.15;1.50;;;;;;;18.90;96.45;100839.19;5032068;28;20029;-67
2023/09/19 11:04:35;;;;;;;6.53;2.10;;;;;;;18.89;93.23;100834.78;5027484;28;20072;-68
2023/09/19 11:07:08;;;;;;;6.40;1.98;;;;;;;18.75;90.50;100826.97;5033002;28;20092;-68
2023/09/19 11:09:57;;;;;;;6.65;2.38;;;;;;;18.78;93.14;100820.84;5032665;28;20039;-67
2023/09/19 11:12:29;;;;;;;7.85;2.17;;;;;;;18.63;90.10;100814.75;5047091;28;20040;-67
2023/09/19 11:14:54;;;;;;;6.22;2.08;;;;;;;18.79;91.68;100812.09;5046936;28;20051;-66
2023/09/19 11:17:19;;;;;;;7.90;1.73;;;;;;;18.91;91.66;100795.41;5044696;28;20111;-66
2023/09/19 11:22:48;;;;;;;7.95;1.80;;;;;;;19.10;87.99;100801.50;5028308;28;20062;-67
2023/09/19 11:25:34;;;;;;;8.02;1.63;;;;;;;18.87;84.45;100799.81;5028007;28;20472;-67
2023/09/19 11:28:06;;;;;;;4.03;1.42;;;;;;;18.94;86.66;100808.56;5015646;28;20040;-67